Terminal Aerodrome Forecast
Issued by NWS

Current Version | Previous Version | Graphics & Text | Print | Product List | Glossary On
Versions: 1 2 3 4 5 6 7 8 9 10 11 12 13 14 15 16 17 18 19 20 21 22 23 24 25 26 27 28 29 30 31 32 33 34 35 36 37 38 39
000
FTUS41 KRNK 240526
TAFLWB
TAF
KLWB 240526Z 2406/2506 02004KT P6SM -RA SCT050 OVC090
     FM241200 03002KT P6SM SCT025 OVC040
     FM241700 VRB03KT P6SM OVC035
     FM242200 VRB03KT 6SM -RA BR OVC012=

USA.gov is the U.S. government's official web portal to all federal, state and local government web resources and services.